Time;durP1;ratioP1;P1;durP2;ratioP2;P2;SDS_P1;SDS_P2;PMS_P1;PMS_P2;Temp;Humidity;BMP_temperature;BMP_pressure;BME280_temperature;BME280_humidity;BME280_pressure;Samples;Min_cycle;Max_cycle;Signal;HPM_P1;HPM_P2
2021/01/05 00:02:12;;;;;;;0.70;0.70;;;2.40;99.90;;;;;;4445988;32;20493;-55
2021/01/05 00:04:39;;;;;;;5.87;2.35;;;2.30;99.90;;;;;;4445154;32;20093;-54
2021/01/05 00:07:05;;;;;;;3.37;1.85;;;2.40;99.90;;;;;;4432826;32;20453;-55
2021/01/05 00:09:31;;;;;;;1.83;1.55;;;2.40;99.90;;;;;;4429167;32;20053;-53
2021/01/05 00:12:02;;;;;;;3.80;2.03;;;2.40;99.90;;;;;;4428358;32;20082;-57
2021/01/05 00:14:28;;;;;;;;;;;2.30;99.90;;;;;;4428406;32;20057;-54
2021/01/05 00:16:53;;;;;;;5.15;1.80;;;2.40;99.90;;;;;;4429515;32;20323;-54
2021/01/05 00:19:21;;;;;;;0.95;0.95;;;2.40;99.90;;;;;;4429707;32;20061;-56
2021/01/05 00:21:46;;;;;;;1.23;1.12;;;2.50;99.90;;;;;;4428491;32;20140;-57
2021/01/05 00:24:12;;;;;;;3.83;1.87;;;2.40;99.90;;;;;;4429861;32;20526;-54
2021/01/05 00:26:38;;;;;;;1.92;1.75;;;2.40;99.90;;;;;;4430148;32;20076;-54
2021/01/05 00:29:04;;;;;;;1.30;1.20;;;2.40;99.90;;;;;;4427829;32;20369;-55
2021/01/05 00:31:30;;;;;;;0.77;0.77;;;2.50;99.90;;;;;;4429554;32;20065;-56
2021/01/05 00:33:55;;;;;;;2.97;1.35;;;2.50;99.90;;;;;;4429792;32;20086;-56
2021/01/05 00:36:21;;;;;;;2.10;1.75;;;2.50;99.90;;;;;;4429475;32;20065;-53
2021/01/05 00:38:47;;;;;;;0.82;0.82;;;2.50;99.90;;;;;;4429655;32;20077;-54
2021/01/05 00:41:12;;;;;;;1.58;1.15;;;2.50;99.90;;;;;;4427268;32;20181;-56
2021/01/05 00:43:39;;;;;;;3.20;1.55;;;2.50;99.90;;;;;;4428356;32;20494;-54
2021/01/05 00:46:06;;;;;;;1.27;1.10;;;2.50;99.90;;;;;;4429256;32;20069;-54
2021/01/05 00:48:32;;;;;;;0.77;0.73;;;2.60;99.90;;;;;;4415553;32;20077;-56
2021/01/05 00:50:57;;;;;;;7.28;2.50;;;2.60;99.90;;;;;;4428597;32;20448;-54
2021/01/05 00:53:22;;;;;;;1.48;1.37;;;2.50;99.90;;;;;;4428246;32;20061;-55
2021/01/05 00:55:48;;;;;;;1.75;1.20;;;2.50;99.90;;;;;;4428658;32;20094;-57
2021/01/05 00:58:14;;;;;;;0.82;0.82;;;2.50;99.90;;;;;;4428340;32;20226;-52
2021/01/05 01:00:39;;;;;;;1.52;1.20;;;2.50;99.90;;;;;;4427984;32;20201;-56
2021/01/05 01:03:05;;;;;;;15.15;1.15;;;2.50;99.90;;;;;;4428610;32;20066;-55
2021/01/05 01:05:30;;;;;;;4.22;1.15;;;2.50;99.90;;;;;;4429400;32;20086;-55
2021/01/05 01:07:56;;;;;;;1.73;1.60;;;2.50;99.90;;;;;;4444721;32;20061;-53
2021/01/05 01:10:21;;;;;;;3.33;1.42;;;2.50;99.90;;;;;;4443649;32;20064;-54
2021/01/05 01:12:47;;;;;;;1.25;1.15;;;2.60;99.90;;;;;;4429364;32;20195;-54
2021/01/05 01:15:13;;;;;;;1.23;0.93;;;2.50;99.90;;;;;;4427434;32;20065;-53
2021/01/05 01:17:39;;;;;;;13.15;1.45;;;2.40;99.90;;;;;;4433176;32;20061;-53
2021/01/05 01:20:06;;;;;;;0.68;0.68;;;2.40;99.90;;;;;;4431194;32;20089;-58
2021/01/05 01:22:32;;;;;;;1.05;1.05;;;2.40;99.90;;;;;;4443457;32;20156;-53
2021/01/05 01:24:57;;;;;;;0.80;0.80;;;2.40;99.90;;;;;;4446770;32;20462;-54
2021/01/05 01:27:23;;;;;;;0.80;0.80;;;2.50;99.90;;;;;;4446159;32;20076;-56
2021/01/05 01:29:48;;;;;;;1.37;1.12;;;2.50;99.90;;;;;;4445982;32;20077;-56
2021/01/05 01:32:15;;;;;;;2.00;1.60;;;2.50;99.90;;;;;;4446554;32;20085;-54
2021/01/05 01:34:41;;;;;;;2.45;1.40;;;2.40;99.90;;;;;;4445202;32;20496;-56
2021/01/05 01:37:10;;;;;;;3.03;1.65;;;2.50;99.90;;;;;;4446710;32;20089;-52
2021/01/05 01:39:37;;;;;;;1.00;0.97;;;2.50;99.90;;;;;;4445931;32;20065;-53
2021/01/05 01:42:06;;;;;;;1.67;1.58;;;2.60;99.90;;;;;;4445975;32;20061;-53
2021/01/05 01:44:35;;;;;;;0.50;0.50;;;2.50;99.90;;;;;;4445508;32;20144;-54
2021/01/05 01:47:14;;;;;;;2.85;1.42;;;2.50;99.90;;;;;;4445884;32;20049;-56
2021/01/05 01:49:40;;;;;;;0.60;0.60;;;2.50;99.90;;;;;;4446336;32;20064;-53
2021/01/05 01:52:08;;;;;;;0.82;0.82;;;2.50;99.90;;;;;;4446400;32;20052;-53
2021/01/05 01:54:49;;;;;;;2.00;1.48;;;2.40;99.90;;;;;;4446490;32;20061;-55
2021/01/05 01:57:48;;;;;;;0.90;0.90;;;2.40;99.90;;;;;;4444521;32;20058;-56
2021/01/05 02:00:27;;;;;;;0.50;0.50;;;2.40;99.90;;;;;;4447184;32;20074;-54
2021/01/05 02:03:13;;;;;;;0.60;0.60;;;2.40;99.90;;;;;;4447038;32;20130;-52
2021/01/05 02:06:03;;;;;;;9.52;1.92;;;2.30;99.90;;;;;;4444011;32;20517;-52
2021/01/05 02:08:49;;;;;;;6.30;2.92;;;2.40;99.90;;;;;;4430250;32;20082;-55
2021/01/05 02:11:35;;;;;;;1.65;1.48;;;2.40;99.90;;;;;;4435822;32;20072;-57
2021/01/05 02:14:29;;;;;;;4.12;2.35;;;2.40;99.90;;;;;;4446639;32;20425;-56
2021/01/05 02:16:59;;;;;;;2.05;1.52;;;2.40;99.90;;;;;;4435101;32;20080;-55
2021/01/05 02:19:47;;;;;;;0.70;0.70;;;2.40;99.90;;;;;;4431417;32;20069;-55
2021/01/05 02:22:28;;;;;;;0.70;0.70;;;2.40;99.90;;;;;;4428906;32;20120;-53
2021/01/05 02:25:02;;;;;;;2.15;1.80;;;2.50;99.90;;;;;;4429711;32;20074;-53
2021/01/05 02:27:29;;;;;;;4.55;2.08;;;2.50;99.90;;;;;;4431060;32;20057;-53
2021/01/05 02:29:59;;;;;;;1.67;1.27;;;2.40;99.90;;;;;;4429957;32;20073;-54
2021/01/05 02:32:55;;;;;;;9.05;1.37;;;2.50;99.90;;;;;;4431661;32;20077;-53
2021/01/05 02:35:43;;;;;;;1.75;1.65;;;2.60;99.90;;;;;;4430086;32;20069;-54
2021/01/05 02:38:28;;;;;;;0.90;0.90;;;2.50;99.90;;;;;;4429876;32;20069;-56
2021/01/05 02:41:17;;;;;;;2.92;1.92;;;2.60;99.90;;;;;;4429600;32;20349;-53
2021/01/05 02:44:11;;;;;;;0.60;0.50;;;2.50;99.90;;;;;;4430289;32;20073;-56
2021/01/05 02:46:49;;;;;;;1.05;0.80;;;2.40;99.90;;;;;;4429125;32;20076;-53
2021/01/05 02:49:37;;;;;;;1.15;1.05;;;2.50;99.90;;;;;;4429287;32;20475;-53
2021/01/05 02:52:33;;;;;;;3.30;2.17;;;2.50;99.90;;;;;;4429161;32;20570;-55
2021/01/05 02:55:29;;;;;;;0.80;0.80;;;2.40;99.90;;;;;;4429675;32;20065;-53
2021/01/05 02:58:20;;;;;;;0.75;0.75;;;2.40;99.90;;;;;;4428549;32;20139;-53
2021/01/05 03:01:02;;;;;;;1.77;1.25;;;2.30;99.90;;;;;;4430390;32;20065;-56
2021/01/05 03:03:38;;;;;;;0.73;0.73;;;2.40;99.90;;;;;;4430324;32;20381;-56
2021/01/05 03:06:17;;;;;;;0.75;0.75;;;2.50;99.90;;;;;;4434770;32;20077;-55
2021/01/05 03:09:02;;;;;;;0.77;0.77;;;2.50;99.90;;;;;;4444157;32;20072;-57
2021/01/05 03:11:40;;;;;;;0.68;0.68;;;2.40;99.90;;;;;;4436638;32;20101;-52
2021/01/05 03:14:31;;;;;;;1.10;1.05;;;2.40;99.90;;;;;;4430608;32;20065;-54
2021/01/05 03:17:23;;;;;;;0.60;0.60;;;2.40;99.90;;;;;;4418994;32;20174;-57
2021/01/05 03:20:02;;;;;;;1.12;1.12;;;2.50;99.90;;;;;;4429198;32;20066;-54
2021/01/05 03:22:31;;;;;;;0.57;0.57;;;2.40;99.90;;;;;;4427946;32;20070;-57
2021/01/05 03:24:58;;;;;;;0.70;0.70;;;2.50;99.90;;;;;;4428538;32;20085;-53
2021/01/05 03:27:25;;;;;;;2.28;1.17;;;2.50;99.90;;;;;;4428954;32;20061;-55
2021/01/05 03:29:55;;;;;;;2.28;1.50;;;2.50;99.90;;;;;;4429036;32;20073;-53
2021/01/05 03:32:21;;;;;;;1.40;1.30;;;2.50;99.90;;;;;;4428524;32;20074;-53
2021/01/05 03:34:47;;;;;;;2.53;1.10;;;2.50;99.90;;;;;;4429285;32;20069;-55
2021/01/05 03:37:12;;;;;;;0.52;0.52;;;2.50;99.90;;;;;;4430164;32;20061;-57
2021/01/05 03:39:38;;;;;;;1.25;1.15;;;2.60;99.90;;;;;;4429585;32;20119;-53
2021/01/05 03:42:04;;;;;;;0.82;0.82;;;2.50;99.90;;;;;;4428369;32;20133;-53
2021/01/05 03:44:29;;;;;;;7.22;1.65;;;2.50;99.90;;;;;;4429899;32;20115;-56
2021/01/05 03:46:55;;;;;;;1.58;0.65;;;2.50;99.90;;;;;;4430112;32;20108;-52
2021/01/05 03:49:20;;;;;;;1.25;1.15;;;2.50;99.90;;;;;;4429916;32;20514;-52
2021/01/05 03:51:46;;;;;;;1.60;0.85;;;2.50;99.90;;;;;;4428654;32;20069;-56
2021/01/05 03:54:11;;;;;;;0.70;0.70;;;2.40;99.90;;;;;;4429463;32;20057;-53
2021/01/05 03:56:36;;;;;;;1.52;1.15;;;2.40;99.90;;;;;;4429196;32;20061;-54
2021/01/05 03:59:02;;;;;;;4.00;2.37;;;2.40;99.90;;;;;;4429649;32;20082;-53
2021/01/05 04:01:27;;;;;;;1.17;1.08;;;2.40;99.90;;;;;;4429360;32;20078;-53
2021/01/05 04:03:53;;;;;;;0.80;0.80;;;2.40;99.90;;;;;;4429847;32;20093;-54
2021/01/05 04:06:18;;;;;;;1.98;1.50;;;2.40;99.90;;;;;;4427879;32;20065;-55
2021/01/05 04:08:44;;;;;;;0.82;0.82;;;2.40;99.90;;;;;;4428721;32;20428;-56
2021/01/05 04:11:12;;;;;;;0.85;0.85;;;2.50;99.90;;;;;;4429082;32;20090;-55
2021/01/05 04:13:38;;;;;;;3.60;2.28;;;2.50;99.90;;;;;;4428733;32;20388;-57
2021/01/05 04:16:04;;;;;;;0.75;0.75;;;2.50;99.90;;;;;;4429514;32;20094;-53
2021/01/05 04:18:29;;;;;;;0.70;0.70;;;2.50;99.90;;;;;;4439631;32;20567;-53
2021/01/05 04:20:55;;;;;;;0.93;0.90;;;2.50;99.90;;;;;;4444589;32;20056;-57
2021/01/05 04:23:20;;;;;;;3.33;1.62;;;2.50;99.90;;;;;;4444866;32;20069;-57
2021/01/05 04:25:45;;;;;;;1.55;1.42;;;2.60;99.90;;;;;;4445097;32;20078;-55
2021/01/05 04:28:11;;;;;;;1.73;1.60;;;2.60;99.90;;;;;;4445099;32;20069;-55
2021/01/05 04:30:37;;;;;;;0.68;0.68;;;2.50;99.90;;;;;;4444393;32;20065;-54
2021/01/05 04:33:10;;;;;;;1.08;0.80;;;2.50;99.90;;;;;;4443295;32;20238;-54
2021/01/05 04:35:36;;;;;;;1.05;0.80;;;2.60;99.90;;;;;;4444453;32;20089;-52
2021/01/05 04:38:02;;;;;;;0.85;0.85;;;2.50;99.90;;;;;;4445232;32;20076;-56
2021/01/05 04:40:32;;;;;;;1.05;1.05;;;2.50;99.90;;;;;;4443821;32;20086;-53
2021/01/05 04:43:20;;;;;;;2.00;1.20;;;2.50;99.90;;;;;;4445255;32;20084;-57
2021/01/05 04:46:19;;;;;;;1.10;0.68;;;2.50;99.90;;;;;;4444012;32;20078;-55
2021/01/05 04:48:55;;;;;;;3.78;1.40;;;2.40;99.90;;;;;;4444196;32;20093;-54
2021/01/05 04:51:28;;;;;;;3.05;1.02;;;2.40;99.90;;;;;;4444807;32;20076;-53
2021/01/05 04:54:04;;;;;;;0.50;0.50;;;2.40;99.90;;;;;;4443466;32;20074;-54
2021/01/05 04:56:51;;;;;;;0.90;0.90;;;2.40;99.90;;;;;;4442700;32;20065;-53
2021/01/05 04:59:20;;;;;;;6.47;1.33;;;2.40;99.90;;;;;;4446707;32;20080;-52
2021/01/05 05:01:49;;;;;;;4.03;1.20;;;2.40;99.90;;;;;;4447169;32;20080;-54
2021/01/05 05:04:41;;;;;;;3.85;0.95;;;2.50;99.90;;;;;;4446673;32;20526;-54
2021/01/05 05:07:46;;;;;;;1.58;1.37;;;2.50;99.90;;;;;;4425051;32;20082;-54
2021/01/05 05:10:19;;;;;;;1.10;0.95;;;2.50;99.90;;;;;;4422393;32;20065;-53
2021/01/05 05:12:56;;;;;;;0.80;0.80;;;2.50;99.90;;;;;;4432956;32;20068;-55
2021/01/05 05:15:33;;;;;;;0.40;0.40;;;2.50;99.90;;;;;;4432454;32;20061;-56
2021/01/05 05:18:18;;;;;;;0.52;0.52;;;2.50;99.90;;;;;;4437890;32;20073;-53
2021/01/05 05:21:06;;;;;;;1.70;1.23;;;2.40;99.90;;;;;;4445527;32;20424;-54
2021/01/05 05:23:49;;;;;;;0.45;0.45;;;2.40;99.90;;;;;;4445693;32;20073;-55
2021/01/05 05:26:24;;;;;;;0.55;0.55;;;2.40;99.90;;;;;;4446372;32;20058;-55
2021/01/05 05:29:08;;;;;;;0.80;0.80;;;2.50;99.90;;;;;;4447733;32;20077;-53
2021/01/05 05:31:34;;;;;;;1.05;1.02;;;2.40;99.90;;;;;;4446304;32;20061;-52
2021/01/05 05:34:07;;;;;;;1.50;0.90;;;2.50;99.90;;;;;;4446431;32;20065;-53
2021/01/05 05:37:12;;;;;;;0.90;0.90;;;2.50;99.90;;;;;;4446780;32;20135;-53
2021/01/05 05:39:50;;;;;;;2.33;0.95;;;2.50;99.90;;;;;;4437228;32;20081;-54
2021/01/05 05:42:43;;;;;;;7.43;1.27;;;2.50;99.90;;;;;;4446372;32;20501;-56
2021/01/05 05:45:17;;;;;;;1.77;1.15;;;2.60;99.90;;;;;;4447397;32;20081;-55
2021/01/05 05:47:52;;;;;;;1.17;1.08;;;2.60;99.90;;;;;;4446571;32;20523;-53
2021/01/05 05:50:23;;;;;;;1.27;1.20;;;2.60;99.90;;;;;;4446341;32;20069;-55
2021/01/05 05:52:56;;;;;;;1.00;0.70;;;2.60;99.90;;;;;;4433390;32;20414;-52
2021/01/05 05:55:45;;;;;;;1.58;1.33;;;2.50;99.90;;;;;;4445286;32;20473;-54
2021/01/05 05:58:14;;;;;;;0.60;0.60;;;2.50;99.90;;;;;;4446145;32;20501;-54
2021/01/05 06:00:45;;;;;;;5.93;1.25;;;2.60;99.90;;;;;;4447530;32;20081;-54
2021/01/05 06:03:14;;;;;;;3.85;1.10;;;2.60;99.90;;;;;;4445592;32;20065;-56
2021/01/05 06:05:40;;;;;;;0.62;0.62;;;2.60;99.90;;;;;;4446863;32;20086;-55
2021/01/05 06:08:07;;;;;;;1.35;1.23;;;2.60;99.90;;;;;;4445401;32;20470;-57
2021/01/05 06:10:33;;;;;;;1.40;1.02;;;2.50;99.90;;;;;;4418507;32;20060;-55
2021/01/05 06:12:59;;;;;;;3.15;1.02;;;2.50;99.90;;;;;;4447348;32;20072;-54
2021/01/05 06:15:25;;;;;;;1.35;1.25;;;2.60;99.90;;;;;;4433094;32;20061;-57
2021/01/05 06:17:50;;;;;;;0.60;0.60;;;2.60;99.90;;;;;;4441586;32;20443;-57
2021/01/05 06:20:17;;;;;;;1.27;1.00;;;2.60;99.90;;;;;;4431945;32;20626;-54
2021/01/05 06:22:42;;;;;;;0.60;0.60;;;2.60;99.90;;;;;;4429673;32;20061;-53
2021/01/05 06:25:09;;;;;;;0.40;0.40;;;2.50;99.90;;;;;;4430328;32;20121;-56
2021/01/05 06:27:35;;;;;;;0.75;0.75;;;2.50;99.90;;;;;;4430032;32;20068;-54
2021/01/05 06:30:01;;;;;;;0.75;0.70;;;2.60;99.90;;;;;;4430464;32;20076;-54
2021/01/05 06:32:26;;;;;;;0.50;0.50;;;2.60;99.90;;;;;;4429934;32;20083;-53
2021/01/05 06:34:52;;;;;;;0.85;0.85;;;2.50;99.90;;;;;;4431088;32;20462;-56
2021/01/05 06:37:18;;;;;;;0.55;0.55;;;2.50;99.90;;;;;;4431659;32;20076;-57
2021/01/05 06:39:43;;;;;;;0.60;0.47;;;2.50;99.90;;;;;;4417958;32;20549;-52
2021/01/05 06:42:10;;;;;;;0.50;0.50;;;2.50;99.90;;;;;;4427080;32;20066;-53
2021/01/05 06:44:35;;;;;;;1.23;1.08;;;2.50;99.90;;;;;;4429457;32;20441;-56
2021/01/05 06:47:01;;;;;;;0.40;0.40;;;2.60;99.90;;;;;;4419239;32;20062;-55
2021/01/05 06:49:28;;;;;;;1.98;0.98;;;2.60;99.90;;;;;;4419118;32;20082;-55
2021/01/05 06:51:55;;;;;;;0.40;0.40;;;2.50;99.90;;;;;;4429811;32;20113;-56
2021/01/05 06:54:20;;;;;;;1.75;0.95;;;2.50;99.90;;;;;;4428980;32;20448;-56
2021/01/05 06:56:50;;;;;;;0.50;0.50;;;2.60;99.90;;;;;;4430720;32;20061;-55
2021/01/05 06:59:16;;;;;;;1.08;1.05;;;2.70;99.90;;;;;;4430593;32;20124;-56
2021/01/05 07:01:41;;;;;;;0.50;0.50;;;2.70;99.90;;;;;;4429553;32;20072;-55
2021/01/05 07:04:07;;;;;;;1.05;0.95;;;2.60;99.90;;;;;;4427081;32;20074;-53
2021/01/05 07:06:32;;;;;;;0.40;0.40;;;2.60;99.90;;;;;;4429253;32;20066;-57
2021/01/05 07:08:57;;;;;;;0.50;0.50;;;2.70;99.90;;;;;;4430310;32;20065;-56
2021/01/05 07:11:23;;;;;;;10.40;0.90;;;2.60;99.90;;;;;;4423903;32;20081;-53
2021/01/05 07:13:48;;;;;;;0.57;0.57;;;2.60;99.90;;;;;;4415447;32;20581;-53
2021/01/05 07:16:14;;;;;;;0.80;0.80;;;2.60;99.90;;;;;;4429264;32;20073;-52
2021/01/05 07:18:39;;;;;;;0.77;0.77;;;2.60;99.90;;;;;;4430644;32;20124;-55
2021/01/05 07:21:05;;;;;;;3.80;1.02;;;2.60;99.90;;;;;;4419591;32;20069;-57
2021/01/05 07:23:30;;;;;;;0.47;0.47;;;2.60;99.90;;;;;;4415095;32;20069;-57
2021/01/05 07:25:56;;;;;;;0.50;0.50;;;2.60;99.90;;;;;;4415648;32;20062;-53
2021/01/05 07:28:21;;;;;;;0.65;0.65;;;2.70;99.90;;;;;;4415072;32;20074;-55
2021/01/05 07:30:47;;;;;;;0.62;0.62;;;2.60;99.90;;;;;;4414289;32;20112;-55
2021/01/05 07:33:12;;;;;;;0.50;0.50;;;2.60;99.90;;;;;;4412876;32;20134;-56
2021/01/05 07:35:38;;;;;;;1.42;0.70;;;2.60;99.90;;;;;;4415586;32;20058;-56
2021/01/05 07:38:03;;;;;;;0.73;0.73;;;2.60;99.90;;;;;;4414383;32;20065;-53
2021/01/05 07:40:29;;;;;;;0.50;0.50;;;2.60;99.90;;;;;;4416468;32;20085;-54
2021/01/05 07:42:54;;;;;;;0.50;0.50;;;2.60;99.90;;;;;;4429978;32;20062;-56
2021/01/05 07:45:21;;;;;;;0.95;0.95;;;2.60;99.90;;;;;;4430495;32;20086;-54
2021/01/05 07:47:47;;;;;;;1.15;1.10;;;2.60;99.90;;;;;;4437738;32;20062;-54
2021/01/05 07:50:20;;;;;;;1.00;1.00;;;2.60;99.90;;;;;;4431112;32;20077;-57
2021/01/05 07:52:45;;;;;;;3.90;1.67;;;2.60;99.90;;;;;;4442708;32;20427;-55
2021/01/05 07:55:21;;;;;;;1.35;1.25;;;2.60;99.90;;;;;;4445105;32;20097;-55
2021/01/05 07:57:47;;;;;;;0.70;0.70;;;2.60;99.90;;;;;;4444720;32;20066;-56
2021/01/05 08:00:16;;;;;;;0.95;0.95;;;2.60;99.90;;;;;;4432103;32;20122;-56
2021/01/05 08:02:42;;;;;;;2.30;0.70;;;2.70;99.90;;;;;;4443687;32;20073;-57
2021/01/05 08:05:10;;;;;;;0.40;0.40;;;2.70;99.90;;;;;;4445106;32;20128;-54
2021/01/05 08:07:37;;;;;;;1.45;1.00;;;2.70;99.90;;;;;;4417295;32;20062;-53
2021/01/05 08:10:03;;;;;;;2.22;0.95;;;2.60;99.90;;;;;;4429613;32;20411;-55
2021/01/05 08:12:29;;;;;;;3.72;1.45;;;2.60;99.90;;;;;;4429252;32;20072;-54
2021/01/05 08:14:54;;;;;;;9.40;1.50;;;2.70;99.90;;;;;;4429880;32;20537;-54
2021/01/05 08:17:20;;;;;;;1.45;1.35;;;2.70;99.90;;;;;;4429730;32;20061;-53
2021/01/05 08:19:46;;;;;;;2.62;1.30;;;2.80;99.90;;;;;;4428141;32;20124;-54
2021/01/05 08:22:13;;;;;;;0.75;0.73;;;2.70;99.90;;;;;;4429401;32;20523;-56
2021/01/05 08:24:39;;;;;;;0.57;0.57;;;2.70;99.90;;;;;;4428905;32;20082;-53
2021/01/05 08:27:07;;;;;;;2.33;0.98;;;2.80;99.90;;;;;;4432219;32;20058;-54
2021/01/05 08:29:33;;;;;;;1.27;1.17;;;2.70;99.90;;;;;;4435840;32;20068;-57
2021/01/05 08:31:58;;;;;;;0.98;0.80;;;2.80;99.90;;;;;;4445877;32;20119;-53
2021/01/05 08:34:24;;;;;;;1.10;1.00;;;2.70;99.90;;;;;;4444960;32;20072;-54
2021/01/05 08:36:49;;;;;;;3.30;1.12;;;2.70;99.90;;;;;;4445538;32;20089;-57
2021/01/05 08:39:15;;;;;;;1.67;1.05;;;2.80;99.90;;;;;;4444748;32;20072;-54
2021/01/05 08:41:43;;;;;;;0.70;0.70;;;2.90;99.90;;;;;;4441291;32;92870;-54
2021/01/05 08:44:09;;;;;;;2.60;1.02;;;2.90;99.90;;;;;;4430309;32;20065;-54
2021/01/05 08:46:35;;;;;;;0.43;0.43;;;2.90;99.90;;;;;;4444202;32;20078;-53
2021/01/05 08:49:01;;;;;;;2.12;1.20;;;2.90;99.90;;;;;;4444193;32;20509;-53
2021/01/05 08:51:26;;;;;;;0.75;0.75;;;2.90;99.90;;;;;;4443741;32;20104;-55
2021/01/05 08:53:52;;;;;;;2.17;1.73;;;2.90;99.90;;;;;;4444967;32;20135;-52
2021/01/05 08:56:21;;;;;;;2.28;2.05;;;2.90;99.90;;;;;;4443268;32;20070;-54
2021/01/05 08:58:46;;;;;;;0.62;0.62;;;2.90;99.90;;;;;;4429070;32;20061;-56
2021/01/05 09:01:12;;;;;;;0.50;0.50;;;2.90;99.90;;;;;;4432099;32;20102;-57
2021/01/05 09:03:37;;;;;;;0.55;0.50;;;2.90;99.90;;;;;;4443030;32;20128;-56
2021/01/05 09:06:03;;;;;;;0.62;0.62;;;2.90;99.90;;;;;;4440147;32;20062;-54
2021/01/05 09:08:30;;;;;;;1.20;0.93;;;2.90;99.90;;;;;;4428907;32;20089;-53
2021/01/05 09:10:58;;;;;;;0.95;0.95;;;2.90;99.90;;;;;;4414160;32;20116;-53
2021/01/05 09:13:24;;;;;;;1.55;1.10;;;2.90;99.90;;;;;;4428460;32;20081;-55
2021/01/05 09:15:51;;;;;;;2.53;1.02;;;3.00;99.90;;;;;;4429615;32;20090;-54
2021/01/05 09:18:17;;;;;;;2.17;1.52;;;2.90;99.90;;;;;;4437987;32;20085;-56
2021/01/05 09:20:42;;;;;;;0.88;0.85;;;2.90;99.90;;;;;;4439280;32;20487;-55
2021/01/05 09:23:07;;;;;;;1.40;1.30;;;3.00;99.90;;;;;;4431983;32;20070;-55
2021/01/05 09:25:33;;;;;;;0.70;0.70;;;2.90;99.90;;;;;;4427812;32;20070;-54
2021/01/05 09:27:58;;;;;;;0.50;0.50;;;3.00;99.90;;;;;;4429587;32;20068;-53
2021/01/05 09:30:24;;;;;;;0.70;0.70;;;2.90;99.90;;;;;;4429048;32;20065;-55
2021/01/05 09:32:49;;;;;;;1.92;1.48;;;3.00;99.90;;;;;;4430302;32;20069;-53
2021/01/05 09:35:16;;;;;;;1.40;1.30;;;3.10;99.90;;;;;;4428834;32;20069;-53
2021/01/05 09:37:44;;;;;;;3.50;1.62;;;3.10;99.90;;;;;;4421101;32;20380;-55
2021/01/05 09:40:10;;;;;;;4.05;0.95;;;3.10;99.90;;;;;;4429711;32;20425;-56
2021/01/05 09:42:36;;;;;;;5.32;2.15;;;2.90;99.90;;;;;;4437582;32;20390;-53
2021/01/05 09:45:04;;;;;;;1.85;1.10;;;3.00;99.90;;;;;;4430063;32;20124;-53
2021/01/05 09:47:29;;;;;;;0.62;0.62;;;3.00;99.90;;;;;;4434029;32;20114;-56
2021/01/05 09:49:55;;;;;;;2.08;1.02;;;3.10;99.90;;;;;;4446957;32;20130;-55
2021/01/05 09:52:23;;;;;;;0.90;0.90;;;3.10;99.90;;;;;;4443686;32;20069;-58
2021/01/05 09:54:49;;;;;;;12.30;1.62;;;3.10;99.90;;;;;;4431494;32;20081;-57
2021/01/05 09:57:15;;;;;;;1.52;0.98;;;3.10;99.90;;;;;;4437436;32;20069;-52
2021/01/05 09:59:41;;;;;;;1.02;0.98;;;3.20;99.90;;;;;;4431318;32;20376;-58
2021/01/05 10:02:07;;;;;;;0.80;0.80;;;3.20;99.90;;;;;;4431245;32;20116;-53
2021/01/05 10:04:33;;;;;;;1.45;0.82;;;3.10;99.90;;;;;;4432216;32;20066;-53
2021/01/05 10:06:58;;;;;;;1.12;0.88;;;3.10;99.90;;;;;;4441922;32;20379;-54
2021/01/05 10:09:23;;;;;;;1.52;1.42;;;3.10;99.90;;;;;;4432269;32;20065;-54
2021/01/05 10:11:49;;;;;;;0.62;0.60;;;3.10;99.90;;;;;;4441622;32;20120;-55
2021/01/05 10:14:18;;;;;;;0.43;0.43;;;3.00;99.90;;;;;;4440608;32;20409;-51
2021/01/05 10:16:44;;;;;;;0.65;0.65;;;3.10;99.90;;;;;;4431560;32;20142;-51
2021/01/05 10:19:12;;;;;;;1.65;1.30;;;3.10;99.90;;;;;;4433369;32;20073;-55
2021/01/05 10:21:40;;;;;;;1.15;1.02;;;3.10;99.90;;;;;;4431311;32;20086;-53
2021/01/05 10:24:07;;;;;;;1.10;0.75;;;3.10;99.90;;;;;;4440735;32;20082;-53
2021/01/05 10:26:33;;;;;;;0.88;0.88;;;3.10;99.90;;;;;;4445899;32;20081;-55
2021/01/05 10:28:59;;;;;;;0.62;0.62;;;3.10;99.90;;;;;;4433916;32;20116;-56
2021/01/05 10:31:25;;;;;;;0.98;0.93;;;3.10;99.90;;;;;;4430061;32;20077;-56
2021/01/05 10:33:50;;;;;;;1.48;1.37;;;3.10;99.90;;;;;;4430986;32;20066;-55
2021/01/05 10:36:19;;;;;;;1.48;1.37;;;3.10;99.90;;;;;;4430897;32;20072;-53
2021/01/05 10:38:47;;;;;;;0.80;0.80;;;3.10;99.90;;;;;;4417860;32;20073;-52
2021/01/05 10:41:14;;;;;;;2.85;0.68;;;3.10;99.90;;;;;;4439501;32;20547;-53
2021/01/05 10:43:40;;;;;;;0.90;0.90;;;3.00;99.90;;;;;;4441660;32;20114;-54
2021/01/05 10:46:05;;;;;;;1.60;1.05;;;3.10;99.90;;;;;;4446079;32;20128;-55
2021/01/05 10:48:31;;;;;;;2.30;1.55;;;3.10;99.90;;;;;;4436581;32;20077;-56
2021/01/05 10:50:56;;;;;;;0.77;0.77;;;3.20;99.90;;;;;;4430924;32;20117;-52
2021/01/05 10:53:24;;;;;;;1.45;1.05;;;3.30;99.90;;;;;;4443877;32;20078;-56
2021/01/05 10:55:49;;;;;;;10.85;1.40;;;3.30;99.90;;;;;;4430340;32;20073;-53
2021/01/05 10:58:15;;;;;;;1.33;1.23;;;3.20;99.90;;;;;;4433310;32;20143;-53
2021/01/05 11:00:40;;;;;;;0.90;0.90;;;3.10;99.90;;;;;;4430969;32;20843;-55
2021/01/05 11:03:06;;;;;;;0.68;0.68;;;3.00;99.90;;;;;;4436699;32;20491;-56
2021/01/05 11:05:31;;;;;;;1.15;1.08;;;3.00;99.90;;;;;;4430729;32;20093;-52
2021/01/05 11:07:57;;;;;;;2.87;1.48;;;3.10;99.90;;;;;;4433265;32;20074;-55
2021/01/05 11:10:22;;;;;;;1.52;1.05;;;3.10;99.90;;;;;;4429296;32;20124;-56
2021/01/05 11:12:48;;;;;;;1.00;0.95;;;3.10;99.90;;;;;;4445365;32;20074;-53
2021/01/05 11:15:16;;;;;;;0.90;0.90;;;3.10;99.90;;;;;;4443187;32;20061;-55
2021/01/05 11:17:43;;;;;;;1.45;1.10;;;3.10;99.90;;;;;;4433914;32;20502;-56
2021/01/05 11:20:11;;;;;;;1.42;1.05;;;3.00;99.90;;;;;;4445500;32;20065;-53
2021/01/05 11:22:36;;;;;;;1.10;0.93;;;3.10;99.90;;;;;;4434720;32;20069;-55
2021/01/05 11:25:02;;;;;;;0.50;0.50;;;3.00;99.90;;;;;;4441458;32;20545;-51
2021/01/05 11:27:28;;;;;;;2.33;1.65;;;3.10;99.90;;;;;;4431176;32;20057;-52
2021/01/05 11:29:53;;;;;;;0.90;0.90;;;3.10;99.90;;;;;;4432910;32;20064;-56
2021/01/05 11:32:19;;;;;;;0.73;0.73;;;3.10;99.90;;;;;;4446358;32;20057;-53
2021/01/05 11:34:45;;;;;;;3.85;2.17;;;3.20;99.90;;;;;;4444289;32;20081;-56
2021/01/05 11:37:15;;;;;;;1.17;1.08;;;3.20;99.90;;;;;;4436749;32;20162;-53
2021/01/05 11:39:42;;;;;;;1.73;1.27;;;3.10;99.90;;;;;;4443536;32;20062;-52
2021/01/05 11:42:09;;;;;;;1.10;0.93;;;3.10;99.90;;;;;;4430866;32;20061;-52
2021/01/05 11:44:35;;;;;;;1.17;1.08;;;3.10;99.90;;;;;;4440134;32;20207;-53
2021/01/05 11:47:01;;;;;;;0.40;0.40;;;3.10;99.90;;;;;;4428685;32;20085;-56
2021/01/05 11:49:26;;;;;;;0.60;0.60;;;3.20;99.90;;;;;;4442893;32;20076;-53
2021/01/05 11:51:54;;;;;;;5.28;1.80;;;3.10;99.90;;;;;;4444087;32;20120;-57
2021/01/05 11:54:20;;;;;;;1.23;1.00;;;3.20;99.90;;;;;;4431932;32;20073;-57
2021/01/05 11:56:46;;;;;;;3.05;1.37;;;3.20;99.90;;;;;;4432521;32;20057;-54
2021/01/05 11:59:13;;;;;;;1.58;1.10;;;3.20;99.90;;;;;;4433557;32;20203;-55
2021/01/05 12:01:39;;;;;;;0.43;0.43;;;3.30;99.90;;;;;;4436244;32;20217;-53
2021/01/05 12:04:08;;;;;;;1.23;1.10;;;3.30;99.90;;;;;;4431014;32;20064;-55
2021/01/05 12:06:33;;;;;;;0.40;0.40;;;3.30;99.90;;;;;;4431630;32;20057;-57
2021/01/05 12:08:59;;;;;;;0.50;0.50;;;3.30;99.90;;;;;;4438648;32;20064;-57
2021/01/05 12:11:28;;;;;;;1.08;1.00;;;3.40;99.90;;;;;;4437792;32;20065;-57
2021/01/05 12:13:54;;;;;;;0.60;0.60;;;3.30;99.90;;;;;;4429048;32;20057;-55
2021/01/05 12:16:29;;;;;;;1.02;0.98;;;3.20;99.90;;;;;;4435840;32;20085;-53
2021/01/05 12:18:57;;;;;;;1.37;1.27;;;3.20;99.90;;;;;;4441565;32;20081;-56
2021/01/05 12:21:28;;;;;;;0.95;0.80;;;3.20;99.90;;;;;;4443773;32;20069;-52
2021/01/05 12:23:55;;;;;;;0.95;0.88;;;3.10;99.90;;;;;;4432094;32;20092;-54
2021/01/05 12:26:22;;;;;;;0.50;0.50;;;3.20;99.90;;;;;;4415551;32;20069;-53
2021/01/05 12:28:47;;;;;;;2.05;1.37;;;3.10;99.90;;;;;;4430785;32;20065;-52
2021/01/05 12:31:13;;;;;;;0.50;0.50;;;3.20;99.90;;;;;;4436022;32;20078;-54
2021/01/05 12:33:38;;;;;;;1.30;0.93;;;3.20;99.90;;;;;;4444316;32;20076;-56
2021/01/05 12:36:04;;;;;;;10.35;1.15;;;3.20;99.90;;;;;;4440220;32;20061;-55
2021/01/05 12:38:30;;;;;;;1.17;1.08;;;3.20;99.90;;;;;;4432079;32;20061;-52
2021/01/05 12:40:55;;;;;;;0.70;0.70;;;3.20;99.90;;;;;;4429288;32;20165;-53
2021/01/05 12:43:21;;;;;;;0.82;0.82;;;3.30;99.90;;;;;;4440186;32;20061;-52
2021/01/05 12:45:46;;;;;;;0.62;0.62;;;3.30;99.90;;;;;;4444115;32;20056;-54
2021/01/05 12:48:12;;;;;;;0.62;0.62;;;3.30;99.90;;;;;;4443736;32;20165;-58
2021/01/05 12:50:37;;;;;;;1.27;0.75;;;3.30;99.90;;;;;;4435789;32;20506;-55
2021/01/05 12:53:03;;;;;;;1.40;1.00;;;3.30;99.90;;;;;;4430738;32;20069;-55
2021/01/05 12:55:29;;;;;;;0.77;0.77;;;3.30;99.90;;;;;;4428872;32;20073;-54
2021/01/05 12:57:54;;;;;;;1.60;1.17;;;3.30;99.90;;;;;;4439084;32;20080;-55
2021/01/05 13:00:20;;;;;;;1.65;1.02;;;3.30;99.90;;;;;;4430417;32;20061;-53
2021/01/05 13:02:46;;;;;;;0.98;0.85;;;3.30;99.90;;;;;;4443884;32;20550;-54
2021/01/05 13:05:12;;;;;;;1.08;1.08;;;3.30;99.90;;;;;;4435744;32;20069;-56
2021/01/05 13:07:37;;;;;;;1.52;1.42;;;3.30;99.90;;;;;;4430951;32;20616;-53
2021/01/05 13:10:03;;;;;;;0.47;0.47;;;3.30;99.90;;;;;;4444826;32;20065;-53